»·PEaware :: SKW3764 KBOI-KSLC

SKW3764 :: KBOI-KSLC

FLIGHT INFORMATION

Flight Status: Arrived
Operator:
SkyWest Airlines
More flights by this operator :: More flights under this callsign
Pilot: Anonymous 11975 (11975)
Aircraft: CANADAIR CL-600 CRJ-700
(CRJ7)
More flights by this aircraft type
Origin: KBOI Boise Air Terminal/Gowen
United States
Destination: KSLC Salt Lake City Intl
United States
More flights between these airports :: More routes between these airports
Route: BOI3 BOI ROARR BYI SKEES5
File this flight plan on PilotEdge
Remarks: RMK / SIMBRIEF
Altitude:
(Current/Filed)
29,000ft
Speed:
(Current/Filed)
391kts
Departed: 07-Jul-22 07:32 PM
Arrived: 07-Jul-22 08:13 PM
Distance/Time
Traveled:
251nm/0:41
Distance/Time
To Go:
Arrived

Flight Plot

Page will automatically refresh every two minutes.

Flight plan parsing failed; only flown route is shown


Map Options




Map Legend


Flown Route
Filed Route
Departure Airport
Arrival Airport
Navaid (VOR, NDB)
Fix

Horizontal Profiles

Position Reports

Time Latitude Longitude Heading Altitude Ground
Speed
07-Jul-22 19:14 43.567642 -116.218653 218 2848ft 0kts
07-Jul-22 19:15 43.567642 -116.218653 218 2848ft 0kts
07-Jul-22 19:16 43.567642 -116.218653 218 2848ft 0kts
07-Jul-22 19:17 43.567642 -116.218653 218 2848ft 0kts
07-Jul-22 19:18 43.567642 -116.218653 218 2848ft 0kts
07-Jul-22 19:19 43.567642 -116.218653 218 2848ft 0kts
07-Jul-22 19:20 43.567642 -116.218653 218 2848ft 0kts
07-Jul-22 19:21 43.567642 -116.218653 218 2848ft 0kts
07-Jul-22 19:22 43.567642 -116.218653 218 2848ft 0kts
07-Jul-22 19:23 43.567946 -116.218330 196 2845ft 2kts
07-Jul-22 19:24 43.568100 -116.218490 98 2847ft 0kts
07-Jul-22 19:25 43.567634 -116.217581 171 2846ft 10kts
07-Jul-22 19:26 43.565511 -116.217345 174 2848ft 6kts
07-Jul-22 19:27 43.566132 -116.221446 295 2849ft 15kts
07-Jul-22 19:28 43.567895 -116.226585 295 2845ft 17kts
07-Jul-22 19:29 43.570440 -116.234038 295 2847ft 23kts
07-Jul-22 19:30 43.570675 -116.240277 255 2846ft 2kts
07-Jul-22 19:31 43.568329 -116.237603 115 2844ft 73kts
07-Jul-22 19:32 43.549810 -116.181508 112 4516ft 189kts
07-Jul-22 19:33 43.526776 -116.106513 111 5935ft 239kts
07-Jul-22 19:34 43.499254 -116.008731 110 8038ft 290kts
07-Jul-22 19:35 43.472706 -115.900459 109 11301ft 308kts
07-Jul-22 19:36 43.447148 -115.776340 108 13388ft 368kts
07-Jul-22 19:37 43.400493 -115.649800 125 16657ft 380kts
07-Jul-22 19:38 43.348673 -115.518652 122 19637ft 398kts
07-Jul-22 19:39 43.296459 -115.381254 121 22327ft 414kts
07-Jul-22 19:40 43.234600 -115.245107 126 24570ft 427kts
07-Jul-22 19:41 43.169345 -115.105656 126 26506ft 442kts
07-Jul-22 19:42 43.101954 -114.962005 126 28325ft 455kts
07-Jul-22 19:43 43.031768 -114.812343 126 28995ft 475kts
07-Jul-22 19:44 42.960205 -114.660884 126 29024ft 475kts
07-Jul-22 19:45 42.888693 -114.509861 126 28976ft 472kts
07-Jul-22 19:46 42.816425 -114.358296 126 28904ft 478kts
07-Jul-22 19:47 42.743664 -114.206375 126 28904ft 482kts
07-Jul-22 19:48 42.670125 -114.053543 126 28950ft 484kts
07-Jul-22 19:49 42.596658 -113.899941 126 29002ft 485kts
07-Jul-22 19:50 42.506790 -113.766009 140 29013ft 479kts
07-Jul-22 19:51 42.410867 -113.640135 137 28984ft 482kts
07-Jul-22 19:52 42.315755 -113.512132 138 28906ft 482kts
07-Jul-22 19:53 42.219669 -113.385159 138 28903ft 484kts
07-Jul-22 19:54 42.123670 -113.258106 138 28412ft 481kts
07-Jul-22 19:55 42.028778 -113.133893 138 26430ft 481kts
07-Jul-22 19:56 41.933483 -113.009413 138 24533ft 467kts
07-Jul-22 19:57 41.841634 -112.889881 138 22579ft 452kts
07-Jul-22 19:58 41.752573 -112.774758 138 20581ft 439kts
07-Jul-22 19:59 41.666354 -112.662195 138 18718ft 429kts
07-Jul-22 20:00 41.580776 -112.553021 138 16767ft 422kts
07-Jul-22 20:01 41.493337 -112.451922 150 15066ft 411kts
07-Jul-22 20:02 41.413368 -112.345410 131 14058ft 409kts
07-Jul-22 20:03 41.337989 -112.232141 134 13348ft 404kts
07-Jul-22 20:04 41.263054 -112.122273 134 12208ft 397kts
07-Jul-22 20:05 41.184994 -112.048121 168 11023ft 312kts
07-Jul-22 20:06 41.104605 -112.033949 176 9693ft 287kts
07-Jul-22 20:07 41.027317 -112.024945 175 8513ft 265kts
07-Jul-22 20:08 40.956269 -112.016573 175 6984ft 234kts
07-Jul-22 20:09 40.902490 -112.010310 174 6090ft 151kts
07-Jul-22 20:10 40.860722 -112.005312 174 5441ft 150kts
07-Jul-22 20:11 40.819802 -112.000676 175 4484ft 141kts
07-Jul-22 20:12 40.789913 -111.997218 174 4238ft 39kts
07-Jul-22 20:13 40.787228 -111.995019 56 4237ft 5kts

Navigation Log

Ident Type
Flight plan parsing failed, navigation log unavailable